Time;durP1;ratioP1;P1;durP2;ratioP2;P2;SDS_P1;SDS_P2;PMS_P1;PMS_P2;Temp;Humidity;BMP_temperature;BMP_pressure;BME280_temperature;BME280_humidity;BME280_pressure;Samples;Min_cycle;Max_cycle;Signal;HPM_P1;HPM_P2
2023/12/20 00:01:36;;;;;;;7.53;0.75;;;;;;;;;;5001558;28;20429;-73
2023/12/20 00:04:05;;;;;;;11.95;0.85;;;;;;;;;;5034929;28;20115;-73
2023/12/20 00:06:31;;;;;;;9.45;0.70;;;;;;;;;;5001487;28;20502;-74
2023/12/20 00:09:00;;;;;;;10.07;0.90;;;;;;;;;;5051329;28;20446;-72
2023/12/20 00:11:26;;;;;;;7.95;0.80;;;;;;;;;;5018009;28;20050;-73
2023/12/20 00:13:52;;;;;;;13.68;1.02;;;;;;;;;;5014426;28;20050;-74
2023/12/20 00:16:19;;;;;;;13.55;0.68;;;;;;;;;;5016963;28;20058;-73
2023/12/20 00:18:45;;;;;;;9.53;0.60;;;;;;;;;;5027215;28;20411;-73
2023/12/20 00:21:11;;;;;;;11.27;0.93;;;;;;;;;;5028589;28;20128;-74
2023/12/20 00:23:37;;;;;;;13.00;0.60;;;;;;;;;;5014580;28;20053;-74
2023/12/20 00:26:03;;;;;;;7.88;0.65;;;;;;;;;;5014757;28;20041;-72
2023/12/20 00:28:29;;;;;;;16.27;0.90;;;;;;;;;;5015247;28;20108;-73
2023/12/20 00:30:55;;;;;;;11.13;0.75;;;;;;;;;;4997862;28;20049;-73
2023/12/20 00:33:22;;;;;;;11.27;0.63;;;;;;;;;;4998159;28;20101;-73
2023/12/20 00:35:48;;;;;;;8.27;0.70;;;;;;;;;;5013900;28;20049;-72
2023/12/20 00:38:20;;;;;;;11.55;0.90;;;;;;;;;;5030267;28;20439;-72
2023/12/20 00:40:47;;;;;;;8.10;1.05;;;;;;;;;;5014650;28;20479;-74
2023/12/20 00:43:13;;;;;;;8.82;0.43;;;;;;;;;;5014173;28;20050;-74
2023/12/20 00:45:39;;;;;;;11.75;0.77;;;;;;;;;;5015003;28;20038;-72
2023/12/20 00:48:05;;;;;;;10.00;0.95;;;;;;;;;;5013678;28;20058;-73
2023/12/20 00:50:31;;;;;;;16.00;0.90;;;;;;;;;;5013995;28;20053;-74
2023/12/20 00:52:57;;;;;;;8.50;0.65;;;;;;;;;;5013528;28;20088;-72
2023/12/20 00:55:23;;;;;;;10.45;0.70;;;;;;;;;;5013966;28;20064;-75
2023/12/20 00:57:49;;;;;;;15.93;0.80;;;;;;;;;;5014855;28;20050;-75
2023/12/20 01:00:16;;;;;;;18.75;1.50;;;;;;;;;;5013740;28;20140;-74
2023/12/20 01:02:42;;;;;;;13.45;0.82;;;;;;;;;;5014796;28;20053;-75
2023/12/20 01:05:09;;;;;;;8.75;0.60;;;;;;;;;;5014538;28;20478;-73
2023/12/20 01:07:35;;;;;;;13.77;1.40;;;;;;;;;;5014122;28;20498;-73
2023/12/20 01:10:01;;;;;;;6.03;0.80;;;;;;;;;;5012980;28;20136;-73
2023/12/20 01:12:27;;;;;;;19.45;1.20;;;;;;;;;;5014080;28;20049;-74
2023/12/20 01:14:53;;;;;;;10.88;0.90;;;;;;;;;;5034026;28;20465;-72
2023/12/20 01:17:19;;;;;;;13.07;0.70;;;;;;;;;;5033869;28;20084;-73
2023/12/20 01:19:45;;;;;;;15.27;1.63;;;;;;;;;;5016463;28;20486;-74
2023/12/20 01:22:11;;;;;;;14.77;0.82;;;;;;;;;;5017454;28;20050;-73
2023/12/20 01:24:37;;;;;;;14.30;0.80;;;;;;;;;;5049347;28;20088;-74
2023/12/20 01:27:04;;;;;;;18.00;0.98;;;;;;;;;;5034138;28;20053;-75
2023/12/20 01:29:30;;;;;;;13.82;1.08;;;;;;;;;;5034365;28;20052;-74
2023/12/20 01:31:56;;;;;;;14.07;1.10;;;;;;;;;;5035482;28;20049;-75
2023/12/20 01:34:22;;;;;;;12.75;1.00;;;;;;;;;;5046434;28;20568;-74
2023/12/20 01:36:48;;;;;;;20.35;1.77;;;;;;;;;;5071456;28;20072;-73
2023/12/20 01:39:14;;;;;;;10.90;0.93;;;;;;;;;;5024441;28;20048;-76
2023/12/20 01:41:40;;;;;;;14.02;1.77;;;;;;;;;;5024526;28;20116;-74
2023/12/20 01:44:06;;;;;;;13.57;1.25;;;;;;;;;;5039338;28;20045;-74
2023/12/20 01:46:32;;;;;;;9.73;0.80;;;;;;;;;;5035090;28;20042;-74
2023/12/20 01:48:59;;;;;;;12.77;1.15;;;;;;;;;;5000153;28;20045;-73
2023/12/20 01:51:27;;;;;;;16.52;1.10;;;;;;;;;;5034509;28;20430;-74
2023/12/20 01:53:53;;;;;;;11.95;1.10;;;;;;;;;;5016671;28;20057;-75
2023/12/20 01:56:20;;;;;;;12.27;1.10;;;;;;;;;;5034301;28;20137;-77
2023/12/20 01:58:46;;;;;;;;;;;;;;;;;;5034966;28;20045;-74
2023/12/20 02:01:16;;;;;;;11.73;0.93;;;;;;;;;;5033581;28;19932;-75
2023/12/20 02:03:42;;;;;;;12.45;1.02;;;;;;;;;;5033284;28;20449;-74
2023/12/20 02:06:09;;;;;;;12.65;1.02;;;;;;;;;;5033218;28;20045;-73
2023/12/20 02:08:35;;;;;;;13.38;0.93;;;;;;;;;;5015703;28;20479;-73
2023/12/20 02:11:01;;;;;;;14.18;1.20;;;;;;;;;;4999596;28;20061;-74
2023/12/20 02:13:28;;;;;;;13.90;1.27;;;;;;;;;;5009869;28;20101;-74
2023/12/20 02:15:55;;;;;;;16.42;0.90;;;;;;;;;;5013624;28;20092;-74
2023/12/20 02:18:21;;;;;;;;;;;;;;;;;;5013223;28;20054;-73
2023/12/20 02:20:47;;;;;;;19.23;1.27;;;;;;;;;;5013375;28;20012;-74
2023/12/20 02:23:13;;;;;;;6.57;0.70;;;;;;;;;;5012255;28;20057;-74
2023/12/20 02:25:39;;;;;;;12.88;1.00;;;;;;;;;;5013351;28;20068;-75
2023/12/20 02:28:06;;;;;;;11.68;1.05;;;;;;;;;;5013440;28;20133;-74
2023/12/20 02:30:33;;;;;;;13.77;1.38;;;;;;;;;;5013447;28;20070;-74
2023/12/20 02:33:00;;;;;;;10.73;0.80;;;;;;;;;;5013729;28;20089;-74
2023/12/20 02:35:26;;;;;;;16.83;1.35;;;;;;;;;;5013135;28;20041;-75
2023/12/20 02:37:52;;;;;;;13.52;0.98;;;;;;;;;;5014258;28;20073;-74
2023/12/20 02:40:18;;;;;;;11.23;1.02;;;;;;;;;;5013003;28;20061;-73
2023/12/20 02:42:44;;;;;;;9.00;0.88;;;;;;;;;;5013196;28;20088;-73
2023/12/20 02:45:10;;;;;;;13.15;1.05;;;;;;;;;;5012911;28;20082;-74
2023/12/20 02:47:36;;;;;;;14.45;1.13;;;;;;;;;;5012250;28;20042;-75
2023/12/20 02:50:03;;;;;;;12.57;0.82;;;;;;;;;;5013726;28;20044;-73
2023/12/20 02:52:29;;;;;;;12.52;1.45;;;;;;;;;;5015744;28;20053;-73
2023/12/20 02:54:55;;;;;;;14.40;1.05;;;;;;;;;;5016902;28;20054;-74
2023/12/20 02:57:22;;;;;;;13.27;1.52;;;;;;;;;;5017406;28;20050;-74
2023/12/20 02:59:48;;;;;;;19.77;1.60;;;;;;;;;;5016626;28;20466;-74
2023/12/20 03:02:14;;;;;;;14.40;2.50;;;;;;;;;;4999356;28;20053;-74
2023/12/20 03:04:40;;;;;;;18.98;1.98;;;;;;;;;;5016693;28;20357;-75
2023/12/20 03:07:06;;;;;;;19.20;1.52;;;;;;;;;;5016611;28;20046;-73
2023/12/20 03:09:32;;;;;;;17.52;1.67;;;;;;;;;;5016339;28;20081;-73
2023/12/20 03:11:58;;;;;;;16.77;2.40;;;;;;;;;;5017078;28;20374;-74
2023/12/20 03:14:24;;;;;;;24.50;1.45;;;;;;;;;;5015153;28;20062;-74
2023/12/20 03:16:51;;;;;;;17.40;1.63;;;;;;;;;;5015375;28;20494;-73
2023/12/20 03:19:17;;;;;;;27.30;2.13;;;;;;;;;;5015262;28;20046;-74
2023/12/20 03:21:43;;;;;;;18.67;2.08;;;;;;;;;;5015771;28;20050;-73
2023/12/20 03:24:10;;;;;;;19.48;1.48;;;;;;;;;;5014499;28;20109;-75
2023/12/20 03:26:36;;;;;;;17.55;1.30;;;;;;;;;;5015437;28;20506;-75
2023/12/20 03:29:02;;;;;;;24.63;1.85;;;;;;;;;;5015033;28;20052;-74
2023/12/20 03:31:28;;;;;;;19.25;1.25;;;;;;;;;;4998410;28;20058;-73
2023/12/20 03:33:54;;;;;;;19.27;2.45;;;;;;;;;;5015592;28;20057;-73
2023/12/20 03:36:20;;;;;;;19.70;2.17;;;;;;;;;;5015321;28;20046;-74
2023/12/20 03:38:46;;;;;;;18.50;1.90;;;;;;;;;;5015578;28;20060;-75
2023/12/20 03:41:13;;;;;;;26.10;2.90;;;;;;;;;;5015529;28;20303;-74
2023/12/20 03:43:39;;;;;;;16.67;1.52;;;;;;;;;;5015394;28;20038;-73
2023/12/20 03:46:05;;;;;;;18.50;1.75;;;;;;;;;;4997495;28;20089;-74
2023/12/20 03:48:31;;;;;;;22.20;1.83;;;;;;;;;;5014408;28;20050;-74
2023/12/20 03:50:58;;;;;;;25.50;2.00;;;;;;;;;;5014631;28;20054;-74
2023/12/20 03:53:24;;;;;;;19.13;2.10;;;;;;;;;;5014395;28;20077;-74
2023/12/20 03:55:50;;;;;;;25.90;2.40;;;;;;;;;;5014946;28;20042;-74
2023/12/20 03:58:16;;;;;;;19.33;2.10;;;;;;;;;;5015096;28;20133;-73
2023/12/20 04:00:42;;;;;;;20.73;1.90;;;;;;;;;;4997691;28;20541;-73
2023/12/20 04:03:08;;;;;;;28.02;2.85;;;;;;;;;;5013986;28;20049;-75
2023/12/20 04:05:34;;;;;;;26.67;2.00;;;;;;;;;;5014085;28;20125;-74
2023/12/20 04:08:01;;;;;;;28.15;2.03;;;;;;;;;;5014993;28;20059;-74
2023/12/20 04:10:27;;;;;;;;;;;;;;;;;;5015349;28;20062;-73
2023/12/20 04:12:54;;;;;;;18.30;1.80;;;;;;;;;;5016658;28;20282;-74
2023/12/20 04:15:21;;;;;;;29.98;2.10;;;;;;;;;;5017431;28;20068;-74
2023/12/20 04:17:47;;;;;;;20.40;1.65;;;;;;;;;;5017070;28;20054;-74
2023/12/20 04:20:13;;;;;;;22.30;2.47;;;;;;;;;;5000827;28;20059;-75
2023/12/20 04:22:39;;;;;;;16.27;1.90;;;;;;;;;;5034426;28;20049;-73
2023/12/20 04:25:05;;;;;;;12.55;1.70;;;;;;;;;;5017310;28;20041;-72
2023/12/20 04:27:31;;;;;;;12.77;1.48;;;;;;;;;;5034960;28;20045;-73
2023/12/20 04:29:57;;;;;;;21.67;2.03;;;;;;;;;;5034002;28;20525;-74
2023/12/20 04:32:23;;;;;;;22.48;2.13;;;;;;;;;;5034340;28;20041;-75
2023/12/20 04:34:52;;;;;;;18.70;1.98;;;;;;;;;;5017000;28;20390;-74
2023/12/20 04:37:18;;;;;;;17.60;1.65;;;;;;;;;;5017615;28;20041;-74
2023/12/20 04:39:45;;;;;;;24.13;2.47;;;;;;;;;;5034048;28;20046;-74
2023/12/20 04:42:11;;;;;;;18.25;1.65;;;;;;;;;;5034179;28;20086;-74
2023/12/20 04:44:37;;;;;;;21.70;2.50;;;;;;;;;;5000230;28;20042;-74
2023/12/20 04:47:03;;;;;;;18.73;1.67;;;;;;;;;;5016588;28;20053;-74
2023/12/20 04:49:29;;;;;;;27.30;1.83;;;;;;;;;;5016829;28;20156;-74
2023/12/20 04:51:55;;;;;;;18.30;2.05;;;;;;;;;;5033872;28;20045;-74
2023/12/20 04:54:21;;;;;;;22.63;2.87;;;;;;;;;;5016890;28;20060;-74
2023/12/20 04:56:47;;;;;;;20.20;1.67;;;;;;;;;;5000187;28;20744;-75
2023/12/20 04:59:13;;;;;;;22.00;2.42;;;;;;;;;;5033926;28;20088;-73
2023/12/20 05:01:40;;;;;;;21.35;2.20;;;;;;;;;;5033812;28;20546;-73
2023/12/20 05:04:06;;;;;;;21.02;2.53;;;;;;;;;;5016259;28;20037;-74
2023/12/20 05:06:32;;;;;;;35.38;3.58;;;;;;;;;;5034358;28;20089;-74
2023/12/20 05:08:58;;;;;;;19.13;2.10;;;;;;;;;;5017103;28;20111;-74
2023/12/20 05:11:24;;;;;;;20.30;2.33;;;;;;;;;;5033744;28;20053;-75
2023/12/20 05:13:50;;;;;;;18.02;2.17;;;;;;;;;;5015046;28;20065;-73
2023/12/20 05:16:19;;;;;;;20.38;2.30;;;;;;;;;;5048912;28;20103;-74
2023/12/20 05:18:46;;;;;;;18.33;2.40;;;;;;;;;;5033604;28;20501;-75
2023/12/20 05:21:12;;;;;;;18.48;1.98;;;;;;;;;;5033875;28;20545;-74
2023/12/20 05:23:38;;;;;;;17.50;2.20;;;;;;;;;;5016449;28;20057;-74
2023/12/20 05:26:04;;;;;;;19.88;2.72;;;;;;;;;;5033506;28;20050;-72
2023/12/20 05:28:30;;;;;;;19.42;2.13;;;;;;;;;;5033623;28;20049;-73
2023/12/20 05:30:56;;;;;;;26.40;2.17;;;;;;;;;;5016922;28;20127;-74
2023/12/20 05:33:22;;;;;;;20.20;2.00;;;;;;;;;;5015842;28;20049;-74
2023/12/20 05:35:48;;;;;;;13.48;1.48;;;;;;;;;;5016256;28;20045;-75
2023/12/20 05:38:15;;;;;;;25.80;2.65;;;;;;;;;;5033508;28;20091;-75
2023/12/20 05:40:41;;;;;;;16.85;2.30;;;;;;;;;;5015794;28;20072;-75
2023/12/20 05:43:07;;;;;;;21.33;1.77;;;;;;;;;;5015582;28;20049;-74
2023/12/20 05:45:33;;;;;;;26.67;2.40;;;;;;;;;;5033680;28;20124;-74
2023/12/20 05:47:59;;;;;;;19.50;3.38;;;;;;;;;;5048937;28;20137;-74
2023/12/20 05:50:25;;;;;;;27.75;2.33;;;;;;;;;;5015627;28;20050;-74
2023/12/20 05:52:51;;;;;;;20.63;2.50;;;;;;;;;;5015406;28;20088;-74
2023/12/20 05:55:17;;;;;;;21.70;2.05;;;;;;;;;;5015504;28;20042;-75
2023/12/20 05:57:43;;;;;;;19.02;2.20;;;;;;;;;;5016615;28;20061;-71
2023/12/20 06:00:10;;;;;;;25.85;2.15;;;;;;;;;;4999138;28;20501;-73
2023/12/20 06:02:39;;;;;;;16.55;1.48;;;;;;;;;;5015798;28;20555;-75
2023/12/20 06:05:06;;;;;;;16.30;1.42;;;;;;;;;;5015996;28;20045;-73
2023/12/20 06:07:32;;;;;;;18.23;1.90;;;;;;;;;;4999314;28;20041;-73
2023/12/20 06:09:58;;;;;;;17.25;1.67;;;;;;;;;;5015719;28;20308;-73
2023/12/20 06:12:26;;;;;;;27.83;3.47;;;;;;;;;;5015509;28;20058;-73
2023/12/20 06:14:52;;;;;;;16.63;1.58;;;;;;;;;;5015806;28;20062;-73
2023/12/20 06:17:18;;;;;;;21.70;2.63;;;;;;;;;;5033258;28;20068;-72
2023/12/20 06:19:47;;;;;;;18.08;1.85;;;;;;;;;;5015167;28;20054;-73
2023/12/20 06:22:14;;;;;;;21.42;2.17;;;;;;;;;;4999056;28;20465;-74
2023/12/20 06:24:40;;;;;;;16.70;1.88;;;;;;;;;;5016798;28;20041;-73
2023/12/20 06:27:06;;;;;;;19.73;1.70;;;;;;;;;;5036898;28;20084;-73
2023/12/20 06:29:32;;;;;;;20.17;2.13;;;;;;;;;;5037152;28;20046;-73
2023/12/20 06:31:58;;;;;;;15.60;1.60;;;;;;;;;;5036438;28;20093;-72
2023/12/20 06:34:24;;;;;;;16.85;2.00;;;;;;;;;;5018792;28;20056;-73
2023/12/20 06:36:50;;;;;;;15.02;1.60;;;;;;;;;;5036474;28;20053;-74
2023/12/20 06:39:16;;;;;;;16.88;1.70;;;;;;;;;;5036279;28;20491;-73
2023/12/20 06:41:43;;;;;;;11.07;1.45;;;;;;;;;;5002805;28;20049;-73
2023/12/20 06:44:09;;;;;;;19.15;1.70;;;;;;;;;;5034922;28;20379;-74
2023/12/20 06:46:35;;;;;;;13.48;1.38;;;;;;;;;;5018752;28;20045;-73
2023/12/20 06:49:01;;;;;;;15.20;1.70;;;;;;;;;;5052096;28;20056;-73
2023/12/20 06:51:30;;;;;;;21.90;2.22;;;;;;;;;;5018636;28;20053;-73
2023/12/20 06:53:56;;;;;;;21.75;2.53;;;;;;;;;;5018486;28;20418;-73
2023/12/20 06:56:23;;;;;;;21.17;1.80;;;;;;;;;;5036037;28;20041;-73
2023/12/20 06:58:49;;;;;;;12.18;1.27;;;;;;;;;;5018532;28;20053;-72
2023/12/20 07:01:15;;;;;;;17.33;2.42;;;;;;;;;;5018164;28;20049;-73
2023/12/20 07:03:41;;;;;;;20.17;1.67;;;;;;;;;;5018347;28;20057;-72
2023/12/20 07:06:08;;;;;;;12.95;1.40;;;;;;;;;;5018186;28;20697;-72
2023/12/20 07:08:34;;;;;;;13.83;2.10;;;;;;;;;;5035957;28;20184;-71
2023/12/20 07:11:00;;;;;;;19.30;1.65;;;;;;;;;;5002004;28;20050;-72
2023/12/20 07:13:26;;;;;;;13.35;2.10;;;;;;;;;;5017740;28;20133;-72
2023/12/20 07:15:52;;;;;;;17.15;2.25;;;;;;;;;;5018016;28;20049;-72
2023/12/20 07:18:18;;;;;;;12.60;1.30;;;;;;;;;;5034458;28;20046;-72
2023/12/20 07:20:44;;;;;;;18.25;2.42;;;;;;;;;;5018097;28;20128;-72
2023/12/20 07:23:11;;;;;;;16.35;1.90;;;;;;;;;;5018107;28;20058;-71
2023/12/20 07:25:37;;;;;;;20.27;2.63;;;;;;;;;;5017994;28;20084;-72
2023/12/20 07:28:03;;;;;;;16.35;1.50;;;;;;;;;;5035547;28;20342;-71
2023/12/20 07:30:29;;;;;;;17.33;2.53;;;;;;;;;;5017996;28;20100;-71
2023/12/20 07:32:56;;;;;;;25.40;2.70;;;;;;;;;;5035455;28;20295;-73
2023/12/20 07:35:22;;;;;;;23.58;2.05;;;;;;;;;;5017659;28;20045;-72
2023/12/20 07:37:48;;;;;;;15.27;2.10;;;;;;;;;;5017145;28;20053;-71
2023/12/20 07:40:16;;;;;;;15.85;1.45;;;;;;;;;;5035267;28;20041;-71
2023/12/20 07:42:43;;;;;;;19.42;2.60;;;;;;;;;;5035765;28;20049;-72
2023/12/20 07:45:10;;;;;;;21.67;2.17;;;;;;;;;;5034981;28;20487;-71
2023/12/20 07:47:36;;;;;;;15.65;1.88;;;;;;;;;;5035176;28;20072;-73
2023/12/20 07:50:03;;;;;;;15.45;2.15;;;;;;;;;;5018416;28;20103;-71
2023/12/20 07:52:29;;;;;;;25.35;2.08;;;;;;;;;;5017890;28;20084;-73
2023/12/20 07:54:55;;;;;;;15.05;1.52;;;;;;;;;;5050413;28;20077;-72
2023/12/20 07:57:22;;;;;;;16.67;1.92;;;;;;;;;;5018200;28;20441;-70
2023/12/20 07:59:48;;;;;;;18.45;2.03;;;;;;;;;;5034913;28;20088;-71
2023/12/20 08:02:14;;;;;;;25.73;2.50;;;;;;;;;;5034826;28;20494;-71
2023/12/20 08:04:40;;;;;;;16.33;1.92;;;;;;;;;;5018004;28;20516;-72
2023/12/20 08:07:07;;;;;;;18.42;2.10;;;;;;;;;;5001094;28;20367;-71
2023/12/20 08:09:36;;;;;;;19.67;2.05;;;;;;;;;;5034693;28;20051;-72
2023/12/20 08:12:02;;;;;;;20.08;2.08;;;;;;;;;;5034683;28;20107;-71
2023/12/20 08:14:28;;;;;;;16.02;1.88;;;;;;;;;;5034736;28;20057;-72
2023/12/20 08:16:54;;;;;;;18.70;1.80;;;;;;;;;;5017127;28;20053;-71
2023/12/20 08:19:21;;;;;;;20.38;2.30;;;;;;;;;;5017809;28;20438;-71
2023/12/20 08:21:47;;;;;;;19.05;2.97;;;;;;;;;;5017143;28;20399;-70
2023/12/20 08:24:13;;;;;;;19.90;1.92;;;;;;;;;;5034843;28;20041;-70
2023/12/20 08:26:39;;;;;;;18.55;2.17;;;;;;;;;;5034400;28;20056;-71
2023/12/20 08:29:05;;;;;;;22.15;2.05;;;;;;;;;;5034700;28;20502;-71
2023/12/20 08:31:31;;;;;;;22.75;2.55;;;;;;;;;;5017063;28;20041;-73
2023/12/20 08:33:57;;;;;;;17.73;2.95;;;;;;;;;;5016762;28;20050;-72
2023/12/20 08:36:23;;;;;;;20.48;2.45;;;;;;;;;;5033553;28;20081;-71
2023/12/20 08:38:50;;;;;;;24.55;3.00;;;;;;;;;;5034167;28;20095;-71
2023/12/20 08:41:17;;;;;;;20.23;2.10;;;;;;;;;;5034079;28;20053;-71
2023/12/20 08:43:43;;;;;;;18.52;2.22;;;;;;;;;;5033018;28;20399;-70
2023/12/20 08:46:09;;;;;;;17.55;2.65;;;;;;;;;;5034247;28;20041;-70
2023/12/20 08:48:36;;;;;;;20.92;2.35;;;;;;;;;;5033088;28;20067;-71
2023/12/20 08:51:02;;;;;;;20.85;2.28;;;;;;;;;;5033931;28;20053;-70
2023/12/20 08:53:28;;;;;;;23.10;1.95;;;;;;;;;;5016392;28;20064;-71
2023/12/20 08:55:54;;;;;;;22.88;2.78;;;;;;;;;;5033810;28;20068;-69
2023/12/20 08:58:20;;;;;;;22.58;2.20;;;;;;;;;;5032657;28;20037;-71
2023/12/20 09:00:46;;;;;;;22.65;2.25;;;;;;;;;;5033829;28;20052;-70
2023/12/20 09:03:12;;;;;;;19.85;1.67;;;;;;;;;;5016352;28;20057;-70
2023/12/20 09:05:38;;;;;;;24.33;2.80;;;;;;;;;;5033499;28;20128;-71
2023/12/20 09:08:05;;;;;;;18.48;1.90;;;;;;;;;;5032354;28;20057;-70
2023/12/20 09:10:31;;;;;;;21.07;2.03;;;;;;;;;;5048821;28;20045;-69
2023/12/20 09:12:57;;;;;;;23.35;2.55;;;;;;;;;;5033633;28;20046;-70
2023/12/20 09:15:27;;;;;;;17.70;2.00;;;;;;;;;;4999691;28;20053;-70
2023/12/20 09:17:54;;;;;;;21.90;1.83;;;;;;;;;;5033384;28;20597;-70
2023/12/20 09:20:20;;;;;;;21.08;2.83;;;;;;;;;;5033506;28;20053;-71
2023/12/20 09:22:46;;;;;;;23.00;2.53;;;;;;;;;;5033478;28;20045;-70
2023/12/20 09:25:13;;;;;;;18.63;1.80;;;;;;;;;;5033755;28;20060;-69
2023/12/20 09:27:39;;;;;;;;;;;;;;;;;;5016634;28;20159;-71
2023/12/20 09:30:06;;;;;;;23.05;2.40;;;;;;;;;;5033691;28;20290;-71
2023/12/20 09:32:32;;;;;;;24.30;2.30;;;;;;;;;;5033240;28;20095;-70
2023/12/20 09:34:58;;;;;;;16.30;1.80;;;;;;;;;;5033818;28;20037;-71
2023/12/20 09:37:28;;;;;;;17.67;1.93;;;;;;;;;;4999213;28;20052;-70
2023/12/20 09:39:54;;;;;;;24.13;2.53;;;;;;;;;;5015758;28;20045;-70
2023/12/20 09:42:39;;;;;;;17.50;2.53;;;;;;;;;;4999464;28;20092;-70
2023/12/20 09:45:08;;;;;;;14.95;1.80;;;;;;;;;;5016177;28;20096;-69
2023/12/20 09:47:34;;;;;;;18.17;2.90;;;;;;;;;;5000149;28;20132;-71
2023/12/20 09:50:01;;;;;;;15.27;2.17;;;;;;;;;;5015574;28;20049;-71
2023/12/20 09:52:27;;;;;;;18.40;2.05;;;;;;;;;;4999315;28;20060;-70
2023/12/20 09:54:54;;;;;;;18.55;1.80;;;;;;;;;;5015974;28;20057;-70
2023/12/20 09:57:21;;;;;;;15.23;2.17;;;;;;;;;;5015749;28;20399;-71
2023/12/20 09:59:47;;;;;;;17.23;2.28;;;;;;;;;;5016701;28;20538;-70
2023/12/20 10:02:14;;;;;;;16.55;2.20;;;;;;;;;;5037176;28;20041;-69
2023/12/20 10:04:50;;;;;;;16.77;1.95;;;;;;;;;;5002991;28;20052;-70
2023/12/20 10:07:16;;;;;;;19.65;2.45;;;;;;;;;;5003402;28;20053;-70
2023/12/20 10:09:43;;;;;;;18.00;2.72;;;;;;;;;;5037731;28;20151;-71
2023/12/20 10:12:09;;;;;;;19.35;2.30;;;;;;;;;;5019551;28;20065;-73
2023/12/20 10:14:36;;;;;;;14.05;1.65;;;;;;;;;;5036660;28;20050;-73
2023/12/20 10:17:05;;;;;;;11.20;0.90;;;;;;;;;;5003134;28;20456;-71
2023/12/20 10:19:32;;;;;;;8.57;0.88;;;;;;;;;;5037473;28;20060;-72
2023/12/20 10:21:59;;;;;;;8.50;1.38;;;;;;;;;;5036707;28;20144;-73
2023/12/20 10:24:26;;;;;;;10.13;0.80;;;;;;;;;;5002895;28;20046;-74
2023/12/20 10:27:09;;;;;;;11.43;1.02;;;;;;;;;;5036786;28;20046;-74
2023/12/20 10:29:35;;;;;;;9.70;0.75;;;;;;;;;;5019809;28;20045;-74
2023/12/20 10:32:20;;;;;;;7.85;0.60;;;;;;;;;;5036479;28;20601;-73
2023/12/20 10:34:46;;;;;;;7.60;0.45;;;;;;;;;;5036649;28;20128;-73
2023/12/20 10:37:12;;;;;;;5.15;0.50;;;;;;;;;;5002717;28;20049;-73
2023/12/20 10:39:39;;;;;;;9.63;0.47;;;;;;;;;;5003352;28;20049;-72
2023/12/20 10:42:06;;;;;;;10.10;0.40;;;;;;;;;;5019526;28;20372;-74
2023/12/20 10:44:32;;;;;;;6.15;0.50;;;;;;;;;;5036279;28;20076;-73
2023/12/20 10:46:58;;;;;;;12.70;0.88;;;;;;;;;;5036867;28;20106;-73
2023/12/20 10:49:26;;;;;;;5.38;0.70;;;;;;;;;;5036318;28;20056;-72
2023/12/20 10:51:52;;;;;;;;;;;;;;;;;;5036437;28;20049;-73
2023/12/20 10:54:18;;;;;;;8.27;0.55;;;;;;;;;;5018680;28;19933;-74
2023/12/20 10:56:45;;;;;;;8.93;0.50;;;;;;;;;;5036093;28;20135;-72
2023/12/20 10:59:12;;;;;;;6.28;0.50;;;;;;;;;;5003158;28;20098;-73
2023/12/20 11:01:38;;;;;;;7.15;0.95;;;;;;;;;;5018780;28;20049;-72
2023/12/20 11:04:08;;;;;;;12.20;0.50;;;;;;;;;;5002397;28;20061;-72
2023/12/20 11:06:40;;;;;;;11.23;0.70;;;;;;;;;;5018292;28;20479;-72
2023/12/20 11:09:27;;;;;;;8.57;0.45;;;;;;;;;;5018765;28;20085;-74
2023/12/20 11:12:12;;;;;;;10.10;0.77;;;;;;;;;;5000915;28;20471;-73
2023/12/20 11:14:48;;;;;;;12.80;0.50;;;;;;;;;;5001624;28;20136;-73
2023/12/20 11:17:16;;;;;;;10.02;0.45;;;;;;;;;;5001984;28;20491;-73
2023/12/20 11:19:58;;;;;;;11.48;0.43;;;;;;;;;;5018186;28;20060;-73
2023/12/20 11:22:28;;;;;;;11.70;0.63;;;;;;;;;;5018917;28;20045;-73
2023/12/20 11:24:55;;;;;;;9.73;0.50;;;;;;;;;;5035588;28;20042;-74
2023/12/20 11:27:22;;;;;;;5.57;0.50;;;;;;;;;;5018144;28;20112;-72
2023/12/20 11:29:58;;;;;;;5.30;0.30;;;;;;;;;;5018049;28;20053;-73
2023/12/20 11:32:27;;;;;;;7.47;0.40;;;;;;;;;;5001905;28;20096;-72
2023/12/20 11:34:54;;;;;;;4.25;0.40;;;;;;;;;;5017815;28;20053;-73
2023/12/20 11:37:21;;;;;;;6.10;0.40;;;;;;;;;;5017885;28;20077;-73
2023/12/20 11:39:56;;;;;;;11.73;0.90;;;;;;;;;;5001687;28;20475;-73
2023/12/20 11:42:22;;;;;;;5.82;0.60;;;;;;;;;;5017848;28;20045;-74
2023/12/20 11:44:48;;;;;;;8.15;0.70;;;;;;;;;;5001244;28;20045;-71
2023/12/20 11:47:15;;;;;;;9.70;0.60;;;;;;;;;;5018077;28;20057;-72
2023/12/20 11:49:41;;;;;;;;;;;;;;;;;;5018098;28;20081;-74
2023/12/20 11:52:07;;;;;;;11.35;0.85;;;;;;;;;;5035055;28;19987;-73
2023/12/20 11:54:33;;;;;;;13.02;0.98;;;;;;;;;;5033965;28;20053;-73
2023/12/20 11:57:00;;;;;;;12.65;0.43;;;;;;;;;;5034978;28;20085;-73
2023/12/20 11:59:26;;;;;;;9.82;0.60;;;;;;;;;;5017422;28;20045;-73
2023/12/20 12:01:52;;;;;;;7.00;0.70;;;;;;;;;;5017112;28;20111;-73
2023/12/20 12:04:18;;;;;;;15.70;1.05;;;;;;;;;;5033618;28;20133;-72
2023/12/20 12:06:45;;;;;;;9.68;0.75;;;;;;;;;;5016690;28;20119;-72
2023/12/20 12:09:11;;;;;;;8.30;0.50;;;;;;;;;;5017251;28;20399;-73
2023/12/20 12:11:37;;;;;;;9.17;1.00;;;;;;;;;;5017679;28;20053;-71
2023/12/20 12:14:04;;;;;;;6.57;0.47;;;;;;;;;;5034747;28;20065;-71
2023/12/20 12:16:30;;;;;;;11.17;0.50;;;;;;;;;;5035338;28;20052;-72
2023/12/20 12:18:57;;;;;;;6.65;0.40;;;;;;;;;;5034476;28;20045;-71
2023/12/20 12:21:23;;;;;;;9.32;0.60;;;;;;;;;;5016944;28;20046;-71
2023/12/20 12:23:49;;;;;;;3.67;0.40;;;;;;;;;;5000381;28;20045;-72
2023/12/20 12:26:15;;;;;;;7.47;0.60;;;;;;;;;;5034467;28;20483;-72
2023/12/20 12:28:42;;;;;;;6.25;0.70;;;;;;;;;;5033518;28;20045;-71
2023/12/20 12:31:08;;;;;;;10.05;0.40;;;;;;;;;;5034529;28;20053;-71
2023/12/20 12:33:35;;;;;;;10.40;0.70;;;;;;;;;;5034321;28;20049;-72
2023/12/20 12:36:03;;;;;;;4.70;0.50;;;;;;;;;;5000028;28;20517;-71
2023/12/20 12:38:30;;;;;;;7.90;0.57;;;;;;;;;;5016319;28;20085;-71
2023/12/20 12:40:57;;;;;;;8.10;0.50;;;;;;;;;;5034155;28;20072;-71
2023/12/20 12:43:23;;;;;;;10.10;0.50;;;;;;;;;;5016601;28;20056;-74
2023/12/20 12:45:49;;;;;;;9.98;0.52;;;;;;;;;;5033954;28;20132;-73
2023/12/20 12:48:15;;;;;;;12.05;0.80;;;;;;;;;;5016634;28;20052;-74
2023/12/20 12:50:41;;;;;;;11.05;0.55;;;;;;;;;;5033983;28;20103;-72
2023/12/20 12:53:08;;;;;;;10.13;0.60;;;;;;;;;;5049162;28;20058;-72
2023/12/20 12:55:36;;;;;;;9.93;0.70;;;;;;;;;;5017248;28;20045;-74
2023/12/20 12:58:02;;;;;;;10.50;0.55;;;;;;;;;;5016338;28;20046;-73
2023/12/20 13:00:28;;;;;;;10.73;1.13;;;;;;;;;;5016074;28;20045;-73
2023/12/20 13:02:54;;;;;;;6.68;0.50;;;;;;;;;;5016023;28;20052;-72
2023/12/20 13:05:20;;;;;;;14.70;0.60;;;;;;;;;;5016283;28;20037;-73
2023/12/20 13:07:47;;;;;;;5.38;0.40;;;;;;;;;;5016353;28;20387;-75
2023/12/20 13:10:16;;;;;;;;;;;;;;;;;;4999748;28;20052;-76
2023/12/20 13:12:42;;;;;;;11.98;0.90;;;;;;;;;;5049821;28;20011;-76
2023/12/20 13:15:09;;;;;;;15.87;0.50;;;;;;;;;;5033809;28;20053;-76
2023/12/20 13:17:35;;;;;;;9.37;0.40;;;;;;;;;;5016581;28;20180;-76
2023/12/20 13:20:01;;;;;;;11.15;0.60;;;;;;;;;;5033443;28;20053;-76
2023/12/20 13:22:28;;;;;;;4.88;0.50;;;;;;;;;;5033748;28;20084;-77
2023/12/20 13:24:54;;;;;;;9.30;0.88;;;;;;;;;;5034056;28;20107;-77
2023/12/20 13:27:20;;;;;;;9.07;0.50;;;;;;;;;;5033699;28;20115;-76
2023/12/20 13:29:46;;;;;;;7.05;0.45;;;;;;;;;;5015856;28;20045;-75
2023/12/20 13:32:12;;;;;;;12.25;1.13;;;;;;;;;;5033899;28;20395;-75
2023/12/20 13:34:38;;;;;;;8.57;0.98;;;;;;;;;;5032884;28;20050;-76
2023/12/20 13:37:04;;;;;;;10.05;0.95;;;;;;;;;;5015669;28;20076;-75
2023/12/20 13:39:31;;;;;;;7.18;0.50;;;;;;;;;;5033845;28;20053;-77
2023/12/20 13:41:57;;;;;;;9.85;0.55;;;;;;;;;;5033325;28;20058;-77
2023/12/20 13:44:24;;;;;;;5.77;0.40;;;;;;;;;;5033255;28;20129;-76
2023/12/20 13:46:50;;;;;;;4.75;0.63;;;;;;;;;;5015641;28;20505;-76
2023/12/20 13:49:16;;;;;;;9.13;0.47;;;;;;;;;;5032046;28;20135;-76
2023/12/20 13:51:42;;;;;;;8.82;0.50;;;;;;;;;;5048609;28;20041;-77
2023/12/20 13:54:10;;;;;;;9.63;0.50;;;;;;;;;;5033614;28;20053;-77
2023/12/20 13:56:36;;;;;;;7.88;0.45;;;;;;;;;;5015791;28;20136;-76
2023/12/20 13:59:03;;;;;;;7.38;0.60;;;;;;;;;;5033182;28;20126;-76
2023/12/20 14:01:29;;;;;;;7.85;0.38;;;;;;;;;;5033196;28;20497;-75
2023/12/20 14:03:55;;;;;;;9.48;0.52;;;;;;;;;;5016551;28;20483;-78
2023/12/20 14:06:22;;;;;;;8.77;0.80;;;;;;;;;;5048344;28;20091;-76
2023/12/20 14:08:48;;;;;;;10.82;0.75;;;;;;;;;;5015655;28;20564;-76
2023/12/20 14:11:15;;;;;;;8.85;0.70;;;;;;;;;;5015331;28;20068;-75
2023/12/20 14:13:41;;;;;;;;;;;;;;;;;;5033003;28;20392;-75
2023/12/20 14:16:07;;;;;;;9.45;1.00;;;;;;;;;;5015567;28;20382;-77
2023/12/20 14:18:33;;;;;;;12.23;1.00;;;;;;;;;;5015424;28;20053;-74
2023/12/20 14:20:59;;;;;;;8.38;0.80;;;;;;;;;;4999106;28;20140;-76
2023/12/20 14:23:25;;;;;;;9.40;0.60;;;;;;;;;;5033154;28;20111;-76
2023/12/20 14:25:51;;;;;;;10.23;0.90;;;;;;;;;;5015698;28;20091;-76
2023/12/20 14:28:18;;;;;;;11.90;1.08;;;;;;;;;;5015206;28;20104;-76
2023/12/20 14:30:44;;;;;;;11.80;0.80;;;;;;;;;;5015298;28;20089;-77
2023/12/20 14:33:10;;;;;;;10.48;0.88;;;;;;;;;;5032841;28;20049;-77